Auance, South Dakota
Current Conditions -  °F | °C
As of 9:55 PM on Wednesday 22 Oct 2014 (Local Time) from KPHP Reporting Station
Clear Clear  
Wind Chill: 39°   Ceiling: Unl
Heat Index: 39°   Visibility: 10mi
Dew Point: 32°   Wind: 3mph
Humidity: 76%   Direction: 260°W
Pressure: 30.01"   Gusts: NA
Location:  44.8511°N, 102.128°W
Report Text: KPHP 230355Z AUTO 26003KT 10SM CLR 04/00 A3001 RMK AO2 SLP167 T00390000
Loading
Personal Weather Stations






























Interactive Weather Map
Tropical Storm Tracking
New forecast layout! Learn more

10-Day Weather Forecast

Advertisements
Track Severe Weather on mobile